Terminal Aerodrome Forecast
Issued by NWS

Home | Current Version | Previous Version | Text Only | Print | Product List | Glossary On
Versions: 1 2 3 4 5 6 7 8 9 10 11 12 13 14 15 16 17 18 19 20 21 22 23 24 25 26 27 28 29 30 31 32 33 34 35 36 37 38
000
FTUS43 KDMX 162340
TAFMCW
TAF
KMCW 162340Z 1700/1724 20007KT P6SM SKC
     FM170400 16004KT P6SM SCT040 BKN070
     FM170800 19005KT P6SM BKN050
     FM172200 14004KT P6SM SCT050=

USA.gov is the U.S. government's official web portal to all federal, state and local government web resources and services.